sensor_id;sensor_type;location;lat;lon;timestamp;P1;durP1;ratioP1;P2;durP2;ratioP2
50853;SDS011;44154;45.506;-122.806;2023-03-31T00:01:48;1.35;;;0.50;;
50853;SDS011;44154;45.506;-122.806;2023-03-31T00:04:16;2.20;;;0.70;;
50853;SDS011;44154;45.506;-122.806;2023-03-31T00:06:43;2.22;;;0.60;;
50853;SDS011;44154;45.506;-122.806;2023-03-31T00:09:10;2.47;;;0.60;;
50853;SDS011;44154;45.506;-122.806;2023-03-31T00:11:38;1.58;;;0.60;;
50853;SDS011;44154;45.506;-122.806;2023-03-31T00:14:05;6.13;;;1.13;;
50853;SDS011;44154;45.506;-122.806;2023-03-31T00:16:36;4.95;;;0.60;;
50853;SDS011;44154;45.506;-122.806;2023-03-31T00:19:03;4.70;;;0.50;;
50853;SDS011;44154;45.506;-122.806;2023-03-31T00:21:34;6.90;;;0.73;;
50853;SDS011;44154;45.506;-122.806;2023-03-31T00:26:29;2.25;;;0.90;;
50853;SDS011;44154;45.506;-122.806;2023-03-31T00:28:56;2.20;;;0.50;;
50853;SDS011;44154;45.506;-122.806;2023-03-31T00:31:23;3.80;;;0.73;;
50853;SDS011;44154;45.506;-122.806;2023-03-31T00:33:51;2.78;;;0.65;;
50853;SDS011;44154;45.506;-122.806;2023-03-31T00:36:17;2.33;;;0.70;;
50853;SDS011;44154;45.506;-122.806;2023-03-31T00:39:00;2.28;;;0.70;;
50853;SDS011;44154;45.506;-122.806;2023-03-31T00:41:36;2.45;;;0.75;;
50853;SDS011;44154;45.506;-122.806;2023-03-31T00:44:07;2.05;;;0.80;;
50853;SDS011;44154;45.506;-122.806;2023-03-31T00:49:35;3.40;;;0.55;;
50853;SDS011;44154;45.506;-122.806;2023-03-31T00:52:14;2.47;;;0.77;;
50853;SDS011;44154;45.506;-122.806;2023-03-31T00:54:44;2.78;;;0.60;;
50853;SDS011;44154;45.506;-122.806;2023-03-31T00:57:13;6.40;;;0.60;;
50853;SDS011;44154;45.506;-122.806;2023-03-31T00:59:45;3.55;;;0.55;;
50853;SDS011;44154;45.506;-122.806;2023-03-31T01:02:13;3.05;;;0.60;;
50853;SDS011;44154;45.506;-122.806;2023-03-31T01:04:43;2.88;;;0.55;;
50853;SDS011;44154;45.506;-122.806;2023-03-31T01:07:17;1.95;;;0.52;;
50853;SDS011;44154;45.506;-122.806;2023-03-31T01:09:50;2.10;;;0.80;;
50853;SDS011;44154;45.506;-122.806;2023-03-31T01:12:23;1.33;;;0.80;;
50853;SDS011;44154;45.506;-122.806;2023-03-31T01:14:49;5.60;;;0.80;;
50853;SDS011;44154;45.506;-122.806;2023-03-31T01:17:17;2.97;;;0.60;;
50853;SDS011;44154;45.506;-122.806;2023-03-31T01:28:14;3.17;;;0.65;;
50853;SDS011;44154;45.506;-122.806;2023-03-31T01:42:54;13.52;;;2.33;;
50853;SDS011;44154;45.506;-122.806;2023-03-31T01:48:08;8.88;;;1.50;;
50853;SDS011;44154;45.506;-122.806;2023-03-31T01:56:10;8.38;;;1.48;;
50853;SDS011;44154;45.506;-122.806;2023-03-31T01:59:18;8.30;;;1.35;;
50853;SDS011;44154;45.506;-122.806;2023-03-31T02:02:02;4.88;;;0.90;;
50853;SDS011;44154;45.506;-122.806;2023-03-31T02:04:36;5.97;;;1.10;;
50853;SDS011;44154;45.506;-122.806;2023-03-31T02:07:41;4.20;;;1.00;;
50853;SDS011;44154;45.506;-122.806;2023-03-31T02:10:12;4.72;;;0.98;;
50853;SDS011;44154;45.506;-122.806;2023-03-31T02:12:40;4.78;;;1.05;;
50853;SDS011;44154;45.506;-122.806;2023-03-31T02:15:10;3.45;;;0.88;;
50853;SDS011;44154;45.506;-122.806;2023-03-31T02:17:42;6.60;;;1.25;;
50853;SDS011;44154;45.506;-122.806;2023-03-31T02:20:13;6.03;;;1.10;;
50853;SDS011;44154;45.506;-122.806;2023-03-31T02:22:44;6.70;;;0.95;;
50853;SDS011;44154;45.506;-122.806;2023-03-31T02:25:14;8.23;;;1.25;;
50853;SDS011;44154;45.506;-122.806;2023-03-31T02:27:45;5.32;;;1.00;;
50853;SDS011;44154;45.506;-122.806;2023-03-31T02:30:17;6.32;;;1.25;;
50853;SDS011;44154;45.506;-122.806;2023-03-31T02:32:43;5.43;;;1.13;;
50853;SDS011;44154;45.506;-122.806;2023-03-31T02:35:12;4.65;;;1.08;;
50853;SDS011;44154;45.506;-122.806;2023-03-31T02:37:41;5.13;;;1.23;;
50853;SDS011;44154;45.506;-122.806;2023-03-31T02:40:10;6.20;;;1.00;;
50853;SDS011;44154;45.506;-122.806;2023-03-31T02:42:40;3.42;;;0.80;;
50853;SDS011;44154;45.506;-122.806;2023-03-31T02:48:24;5.90;;;1.15;;
50853;SDS011;44154;45.506;-122.806;2023-03-31T03:05:46;5.38;;;1.00;;
50853;SDS011;44154;45.506;-122.806;2023-03-31T03:08:45;6.38;;;1.15;;
50853;SDS011;44154;45.506;-122.806;2023-03-31T03:14:13;3.38;;;0.90;;
50853;SDS011;44154;45.506;-122.806;2023-03-31T03:17:00;5.10;;;1.33;;
50853;SDS011;44154;45.506;-122.806;2023-03-31T03:19:32;6.35;;;1.20;;
50853;SDS011;44154;45.506;-122.806;2023-03-31T03:21:58;3.13;;;0.82;;
50853;SDS011;44154;45.506;-122.806;2023-03-31T03:24:25;7.15;;;0.88;;
50853;SDS011;44154;45.506;-122.806;2023-03-31T03:26:54;2.83;;;0.77;;
50853;SDS011;44154;45.506;-122.806;2023-03-31T03:29:20;3.20;;;0.68;;
50853;SDS011;44154;45.506;-122.806;2023-03-31T03:31:47;2.22;;;0.60;;
50853;SDS011;44154;45.506;-122.806;2023-03-31T03:34:13;2.35;;;0.70;;
50853;SDS011;44154;45.506;-122.806;2023-03-31T03:36:39;3.95;;;0.60;;
50853;SDS011;44154;45.506;-122.806;2023-03-31T03:39:05;5.07;;;0.65;;
50853;SDS011;44154;45.506;-122.806;2023-03-31T03:41:32;2.70;;;0.65;;
50853;SDS011;44154;45.506;-122.806;2023-03-31T03:43:59;1.92;;;0.57;;
50853;SDS011;44154;45.506;-122.806;2023-03-31T03:46:25;4.03;;;0.90;;
50853;SDS011;44154;45.506;-122.806;2023-03-31T03:48:52;3.28;;;0.85;;
50853;SDS011;44154;45.506;-122.806;2023-03-31T03:51:18;4.60;;;0.80;;
50853;SDS011;44154;45.506;-122.806;2023-03-31T03:53:44;4.32;;;0.88;;
50853;SDS011;44154;45.506;-122.806;2023-03-31T03:56:10;5.75;;;0.90;;
50853;SDS011;44154;45.506;-122.806;2023-03-31T03:58:36;4.32;;;0.80;;
50853;SDS011;44154;45.506;-122.806;2023-03-31T04:01:02;3.30;;;0.82;;
50853;SDS011;44154;45.506;-122.806;2023-03-31T04:03:29;4.20;;;1.00;;
50853;SDS011;44154;45.506;-122.806;2023-03-31T04:05:55;4.70;;;0.90;;
50853;SDS011;44154;45.506;-122.806;2023-03-31T04:08:22;1.83;;;0.57;;
50853;SDS011;44154;45.506;-122.806;2023-03-31T04:10:48;2.95;;;0.80;;
50853;SDS011;44154;45.506;-122.806;2023-03-31T04:13:16;4.40;;;0.65;;
50853;SDS011;44154;45.506;-122.806;2023-03-31T04:15:43;1.83;;;0.57;;
50853;SDS011;44154;45.506;-122.806;2023-03-31T04:18:10;3.17;;;0.70;;
50853;SDS011;44154;45.506;-122.806;2023-03-31T04:20:50;4.13;;;0.60;;
50853;SDS011;44154;45.506;-122.806;2023-03-31T04:23:37;2.80;;;0.70;;
50853;SDS011;44154;45.506;-122.806;2023-03-31T04:26:14;2.78;;;0.60;;
50853;SDS011;44154;45.506;-122.806;2023-03-31T04:28:42;3.00;;;0.80;;
50853;SDS011;44154;45.506;-122.806;2023-03-31T04:31:11;1.98;;;0.60;;
50853;SDS011;44154;45.506;-122.806;2023-03-31T04:33:50;3.58;;;1.05;;
50853;SDS011;44154;45.506;-122.806;2023-03-31T04:36:16;4.30;;;0.75;;
50853;SDS011;44154;45.506;-122.806;2023-03-31T04:38:48;2.92;;;0.77;;
50853;SDS011;44154;45.506;-122.806;2023-03-31T04:41:19;2.78;;;0.65;;
50853;SDS011;44154;45.506;-122.806;2023-03-31T04:43:46;5.63;;;0.90;;
50853;SDS011;44154;45.506;-122.806;2023-03-31T04:46:12;1.73;;;0.38;;
50853;SDS011;44154;45.506;-122.806;2023-03-31T04:48:38;1.40;;;0.60;;
50853;SDS011;44154;45.506;-122.806;2023-03-31T04:51:05;1.90;;;0.70;;
50853;SDS011;44154;45.506;-122.806;2023-03-31T04:53:31;2.38;;;0.70;;
50853;SDS011;44154;45.506;-122.806;2023-03-31T04:55:57;2.38;;;0.50;;
50853;SDS011;44154;45.506;-122.806;2023-03-31T04:58:23;1.63;;;0.50;;
50853;SDS011;44154;45.506;-122.806;2023-03-31T05:00:50;2.60;;;0.60;;
50853;SDS011;44154;45.506;-122.806;2023-03-31T05:03:16;1.77;;;0.68;;
50853;SDS011;44154;45.506;-122.806;2023-03-31T05:05:42;1.75;;;0.70;;
50853;SDS011;44154;45.506;-122.806;2023-03-31T05:08:09;1.90;;;0.60;;
50853;SDS011;44154;45.506;-122.806;2023-03-31T05:10:35;2.30;;;0.55;;
50853;SDS011;44154;45.506;-122.806;2023-03-31T05:13:01;2.40;;;0.68;;
50853;SDS011;44154;45.506;-122.806;2023-03-31T05:15:28;1.88;;;0.70;;
50853;SDS011;44154;45.506;-122.806;2023-03-31T05:17:54;2.17;;;0.73;;
50853;SDS011;44154;45.506;-122.806;2023-03-31T05:20:22;1.83;;;0.60;;
50853;SDS011;44154;45.506;-122.806;2023-03-31T05:22:48;2.33;;;0.70;;
50853;SDS011;44154;45.506;-122.806;2023-03-31T05:25:15;1.15;;;0.45;;
50853;SDS011;44154;45.506;-122.806;2023-03-31T05:27:43;1.15;;;0.57;;
50853;SDS011;44154;45.506;-122.806;2023-03-31T05:30:14;2.22;;;0.55;;
50853;SDS011;44154;45.506;-122.806;2023-03-31T05:32:41;2.20;;;0.70;;
50853;SDS011;44154;45.506;-122.806;2023-03-31T05:35:07;2.28;;;0.73;;
50853;SDS011;44154;45.506;-122.806;2023-03-31T05:37:34;1.98;;;0.40;;
50853;SDS011;44154;45.506;-122.806;2023-03-31T05:40:01;1.77;;;0.50;;
50853;SDS011;44154;45.506;-122.806;2023-03-31T05:42:29;1.50;;;0.50;;
50853;SDS011;44154;45.506;-122.806;2023-03-31T05:44:55;1.88;;;0.50;;
50853;SDS011;44154;45.506;-122.806;2023-03-31T05:47:21;1.05;;;0.50;;
50853;SDS011;44154;45.506;-122.806;2023-03-31T05:49:47;1.42;;;0.52;;
50853;SDS011;44154;45.506;-122.806;2023-03-31T05:52:13;3.47;;;0.60;;
50853;SDS011;44154;45.506;-122.806;2023-03-31T05:54:39;1.65;;;0.50;;
50853;SDS011;44154;45.506;-122.806;2023-03-31T05:57:07;1.38;;;0.43;;
50853;SDS011;44154;45.506;-122.806;2023-03-31T05:59:34;0.68;;;0.40;;
50853;SDS011;44154;45.506;-122.806;2023-03-31T06:02:01;4.22;;;0.43;;
50853;SDS011;44154;45.506;-122.806;2023-03-31T06:04:27;1.92;;;0.70;;
50853;SDS011;44154;45.506;-122.806;2023-03-31T06:06:53;1.27;;;0.40;;
50853;SDS011;44154;45.506;-122.806;2023-03-31T06:09:20;1.30;;;0.50;;
50853;SDS011;44154;45.506;-122.806;2023-03-31T06:11:46;3.90;;;0.60;;
50853;SDS011;44154;45.506;-122.806;2023-03-31T06:14:12;2.78;;;0.50;;
50853;SDS011;44154;45.506;-122.806;2023-03-31T06:16:38;1.30;;;0.38;;
50853;SDS011;44154;45.506;-122.806;2023-03-31T06:19:04;1.92;;;0.47;;
50853;SDS011;44154;45.506;-122.806;2023-03-31T06:21:31;4.45;;;0.65;;
50853;SDS011;44154;45.506;-122.806;2023-03-31T06:23:57;1.48;;;0.40;;
50853;SDS011;44154;45.506;-122.806;2023-03-31T06:26:24;3.03;;;0.60;;
50853;SDS011;44154;45.506;-122.806;2023-03-31T06:28:51;0.82;;;0.40;;
50853;SDS011;44154;45.506;-122.806;2023-03-31T06:31:19;2.30;;;0.70;;
50853;SDS011;44154;45.506;-122.806;2023-03-31T06:33:47;5.47;;;0.85;;
50853;SDS011;44154;45.506;-122.806;2023-03-31T06:36:14;6.55;;;0.98;;
50853;SDS011;44154;45.506;-122.806;2023-03-31T06:38:42;3.17;;;0.70;;
50853;SDS011;44154;45.506;-122.806;2023-03-31T06:41:09;3.78;;;0.60;;
50853;SDS011;44154;45.506;-122.806;2023-03-31T06:43:37;3.92;;;0.80;;
50853;SDS011;44154;45.506;-122.806;2023-03-31T06:46:03;4.10;;;1.05;;
50853;SDS011;44154;45.506;-122.806;2023-03-31T06:48:30;2.72;;;0.90;;
50853;SDS011;44154;45.506;-122.806;2023-03-31T06:50:58;1.95;;;0.80;;
50853;SDS011;44154;45.506;-122.806;2023-03-31T06:53:26;5.82;;;0.82;;
50853;SDS011;44154;45.506;-122.806;2023-03-31T06:55:53;4.45;;;1.08;;
50853;SDS011;44154;45.506;-122.806;2023-03-31T06:58:19;2.47;;;0.90;;
50853;SDS011;44154;45.506;-122.806;2023-03-31T07:00:45;1.67;;;0.60;;
50853;SDS011;44154;45.506;-122.806;2023-03-31T07:03:11;3.88;;;1.00;;
50853;SDS011;44154;45.506;-122.806;2023-03-31T07:05:38;4.22;;;1.02;;
50853;SDS011;44154;45.506;-122.806;2023-03-31T07:08:04;1.77;;;0.80;;
50853;SDS011;44154;45.506;-122.806;2023-03-31T07:10:31;2.92;;;0.80;;
50853;SDS011;44154;45.506;-122.806;2023-03-31T07:12:57;3.80;;;0.77;;
50853;SDS011;44154;45.506;-122.806;2023-03-31T07:15:24;2.58;;;0.63;;
50853;SDS011;44154;45.506;-122.806;2023-03-31T07:17:54;2.80;;;0.73;;
50853;SDS011;44154;45.506;-122.806;2023-03-31T07:20:26;2.58;;;0.70;;
50853;SDS011;44154;45.506;-122.806;2023-03-31T07:22:53;2.28;;;0.70;;
50853;SDS011;44154;45.506;-122.806;2023-03-31T07:25:19;1.60;;;0.60;;
50853;SDS011;44154;45.506;-122.806;2023-03-31T07:27:46;3.03;;;0.60;;
50853;SDS011;44154;45.506;-122.806;2023-03-31T07:30:13;3.80;;;0.90;;
50853;SDS011;44154;45.506;-122.806;2023-03-31T07:32:41;2.88;;;0.63;;
50853;SDS011;44154;45.506;-122.806;2023-03-31T07:35:10;1.30;;;0.40;;
50853;SDS011;44154;45.506;-122.806;2023-03-31T07:37:37;1.88;;;0.52;;
50853;SDS011;44154;45.506;-122.806;2023-03-31T07:40:05;3.63;;;0.70;;
50853;SDS011;44154;45.506;-122.806;2023-03-31T07:42:33;1.50;;;0.60;;
50853;SDS011;44154;45.506;-122.806;2023-03-31T07:45:00;2.10;;;0.60;;
50853;SDS011;44154;45.506;-122.806;2023-03-31T07:47:27;2.05;;;0.35;;
50853;SDS011;44154;45.506;-122.806;2023-03-31T07:49:53;2.05;;;0.55;;
50853;SDS011;44154;45.506;-122.806;2023-03-31T07:52:20;1.92;;;0.47;;
50853;SDS011;44154;45.506;-122.806;2023-03-31T07:54:46;2.42;;;0.60;;
50853;SDS011;44154;45.506;-122.806;2023-03-31T07:57:12;1.70;;;0.50;;
50853;SDS011;44154;45.506;-122.806;2023-03-31T07:59:38;2.15;;;0.63;;
50853;SDS011;44154;45.506;-122.806;2023-03-31T08:02:04;3.15;;;0.80;;
50853;SDS011;44154;45.506;-122.806;2023-03-31T08:04:31;1.88;;;0.60;;
50853;SDS011;44154;45.506;-122.806;2023-03-31T08:06:57;2.20;;;0.73;;
50853;SDS011;44154;45.506;-122.806;2023-03-31T08:09:23;2.80;;;0.40;;
50853;SDS011;44154;45.506;-122.806;2023-03-31T08:11:49;3.35;;;0.63;;
50853;SDS011;44154;45.506;-122.806;2023-03-31T08:14:15;0.80;;;0.35;;
50853;SDS011;44154;45.506;-122.806;2023-03-31T08:16:41;2.85;;;0.43;;
50853;SDS011;44154;45.506;-122.806;2023-03-31T08:19:07;1.20;;;0.60;;
50853;SDS011;44154;45.506;-122.806;2023-03-31T08:21:33;2.08;;;0.47;;
50853;SDS011;44154;45.506;-122.806;2023-03-31T08:24:00;2.05;;;0.52;;
50853;SDS011;44154;45.506;-122.806;2023-03-31T08:26:26;1.40;;;0.50;;
50853;SDS011;44154;45.506;-122.806;2023-03-31T08:28:52;1.95;;;0.77;;
50853;SDS011;44154;45.506;-122.806;2023-03-31T08:31:19;0.95;;;0.40;;
50853;SDS011;44154;45.506;-122.806;2023-03-31T08:33:48;2.15;;;0.52;;
50853;SDS011;44154;45.506;-122.806;2023-03-31T08:36:14;2.58;;;0.60;;
50853;SDS011;44154;45.506;-122.806;2023-03-31T08:38:41;1.38;;;0.52;;
50853;SDS011;44154;45.506;-122.806;2023-03-31T08:41:18;2.90;;;0.70;;
50853;SDS011;44154;45.506;-122.806;2023-03-31T08:44:10;2.45;;;0.60;;
50853;SDS011;44154;45.506;-122.806;2023-03-31T08:46:45;4.20;;;0.80;;
50853;SDS011;44154;45.506;-122.806;2023-03-31T08:49:14;1.90;;;0.57;;
50853;SDS011;44154;45.506;-122.806;2023-03-31T08:51:46;2.33;;;0.70;;
50853;SDS011;44154;45.506;-122.806;2023-03-31T08:56:58;2.35;;;0.70;;
50853;SDS011;44154;45.506;-122.806;2023-03-31T08:59:27;1.60;;;0.60;;
50853;SDS011;44154;45.506;-122.806;2023-03-31T09:10:40;2.50;;;0.70;;
50853;SDS011;44154;45.506;-122.806;2023-03-31T09:13:28;1.45;;;0.50;;
50853;SDS011;44154;45.506;-122.806;2023-03-31T09:18:58;2.30;;;0.70;;
50853;SDS011;44154;45.506;-122.806;2023-03-31T09:24:03;1.85;;;0.68;;
50853;SDS011;44154;45.506;-122.806;2023-03-31T09:26:40;2.03;;;0.75;;
50853;SDS011;44154;45.506;-122.806;2023-03-31T09:29:18;2.92;;;0.75;;
50853;SDS011;44154;45.506;-122.806;2023-03-31T09:31:53;3.33;;;0.70;;
50853;SDS011;44154;45.506;-122.806;2023-03-31T09:34:28;3.97;;;0.80;;
50853;SDS011;44154;45.506;-122.806;2023-03-31T09:36:58;1.02;;;0.35;;
50853;SDS011;44154;45.506;-122.806;2023-03-31T09:39:24;2.20;;;0.63;;
50853;SDS011;44154;45.506;-122.806;2023-03-31T09:41:51;1.10;;;0.47;;
50853;SDS011;44154;45.506;-122.806;2023-03-31T09:47:14;1.27;;;0.40;;
50853;SDS011;44154;45.506;-122.806;2023-03-31T09:49:48;1.50;;;0.50;;
50853;SDS011;44154;45.506;-122.806;2023-03-31T09:52:28;2.05;;;0.70;;
50853;SDS011;44154;45.506;-122.806;2023-03-31T09:55:00;1.23;;;0.43;;
50853;SDS011;44154;45.506;-122.806;2023-03-31T09:57:47;1.33;;;0.60;;
50853;SDS011;44154;45.506;-122.806;2023-03-31T10:00:18;1.13;;;0.50;;
50853;SDS011;44154;45.506;-122.806;2023-03-31T10:07:51;1.35;;;0.47;;
50853;SDS011;44154;45.506;-122.806;2023-03-31T10:10:36;2.38;;;0.50;;
50853;SDS011;44154;45.506;-122.806;2023-03-31T10:13:06;2.47;;;0.70;;
50853;SDS011;44154;45.506;-122.806;2023-03-31T10:15:37;1.25;;;0.47;;
50853;SDS011;44154;45.506;-122.806;2023-03-31T10:18:04;1.42;;;0.50;;
50853;SDS011;44154;45.506;-122.806;2023-03-31T10:20:36;1.83;;;0.52;;
50853;SDS011;44154;45.506;-122.806;2023-03-31T10:25:51;2.78;;;0.70;;
50853;SDS011;44154;45.506;-122.806;2023-03-31T10:28:18;2.42;;;0.60;;
50853;SDS011;44154;45.506;-122.806;2023-03-31T10:30:49;2.83;;;0.90;;
50853;SDS011;44154;45.506;-122.806;2023-03-31T10:33:25;3.08;;;0.80;;
50853;SDS011;44154;45.506;-122.806;2023-03-31T10:35:56;2.20;;;0.60;;
50853;SDS011;44154;45.506;-122.806;2023-03-31T10:38:45;2.30;;;0.43;;
50853;SDS011;44154;45.506;-122.806;2023-03-31T10:41:12;2.20;;;0.60;;
50853;SDS011;44154;45.506;-122.806;2023-03-31T10:43:47;1.75;;;0.50;;
50853;SDS011;44154;45.506;-122.806;2023-03-31T10:46:16;2.40;;;0.55;;
50853;SDS011;44154;45.506;-122.806;2023-03-31T10:48:42;0.85;;;0.30;;
50853;SDS011;44154;45.506;-122.806;2023-03-31T10:53:45;0.80;;;0.30;;
50853;SDS011;44154;45.506;-122.806;2023-03-31T11:23:42;1.30;;;0.40;;
50853;SDS011;44154;45.506;-122.806;2023-03-31T11:31:56;0.95;;;0.40;;
50853;SDS011;44154;45.506;-122.806;2023-03-31T11:37:24;0.77;;;0.40;;
50853;SDS011;44154;45.506;-122.806;2023-03-31T11:42:59;1.63;;;0.50;;
50853;SDS011;44154;45.506;-122.806;2023-03-31T11:45:37;1.33;;;0.50;;
50853;SDS011;44154;45.506;-122.806;2023-03-31T11:48:32;1.83;;;0.50;;
50853;SDS011;44154;45.506;-122.806;2023-03-31T11:51:08;1.00;;;0.32;;
50853;SDS011;44154;45.506;-122.806;2023-03-31T11:53:42;0.95;;;0.30;;
50853;SDS011;44154;45.506;-122.806;2023-03-31T11:56:11;0.70;;;0.32;;
50853;SDS011;44154;45.506;-122.806;2023-03-31T11:58:41;0.95;;;0.40;;
50853;SDS011;44154;45.506;-122.806;2023-03-31T12:04:03;0.68;;;0.28;;
50853;SDS011;44154;45.506;-122.806;2023-03-31T12:06:38;1.65;;;0.43;;
50853;SDS011;44154;45.506;-122.806;2023-03-31T12:09:10;0.85;;;0.35;;
50853;SDS011;44154;45.506;-122.806;2023-03-31T12:16:59;2.20;;;0.47;;
50853;SDS011;44154;45.506;-122.806;2023-03-31T12:19:35;1.77;;;0.70;;
50853;SDS011;44154;45.506;-122.806;2023-03-31T12:22:32;1.40;;;0.40;;
50853;SDS011;44154;45.506;-122.806;2023-03-31T12:25:03;1.33;;;0.40;;
50853;SDS011;44154;45.506;-122.806;2023-03-31T12:27:40;0.93;;;0.30;;
50853;SDS011;44154;45.506;-122.806;2023-03-31T12:30:12;1.15;;;0.30;;
50853;SDS011;44154;45.506;-122.806;2023-03-31T12:33:06;2.30;;;0.43;;
50853;SDS011;44154;45.506;-122.806;2023-03-31T12:42:00;0.82;;;0.35;;
50853;SDS011;44154;45.506;-122.806;2023-03-31T12:44:56;0.75;;;0.30;;
50853;SDS011;44154;45.506;-122.806;2023-03-31T12:48:25;0.57;;;0.20;;
50853;SDS011;44154;45.506;-122.806;2023-03-31T12:53:49;0.20;;;0.20;;
50853;SDS011;44154;45.506;-122.806;2023-03-31T12:56:18;0.85;;;0.40;;
50853;SDS011;44154;45.506;-122.806;2023-03-31T12:58:46;0.85;;;0.30;;
50853;SDS011;44154;45.506;-122.806;2023-03-31T13:01:16;0.90;;;0.40;;
50853;SDS011;44154;45.506;-122.806;2023-03-31T13:03:48;0.90;;;0.30;;
50853;SDS011;44154;45.506;-122.806;2023-03-31T13:14:01;0.68;;;0.30;;
50853;SDS011;44154;45.506;-122.806;2023-03-31T13:16:34;1.88;;;0.30;;
50853;SDS011;44154;45.506;-122.806;2023-03-31T13:19:01;0.38;;;0.28;;
50853;SDS011;44154;45.506;-122.806;2023-03-31T13:21:27;0.55;;;0.28;;
50853;SDS011;44154;45.506;-122.806;2023-03-31T13:23:58;0.40;;;0.22;;
50853;SDS011;44154;45.506;-122.806;2023-03-31T13:34:33;0.88;;;0.30;;
50853;SDS011;44154;45.506;-122.806;2023-03-31T13:43:09;0.63;;;0.32;;
50853;SDS011;44154;45.506;-122.806;2023-03-31T13:45:58;0.73;;;0.22;;
50853;SDS011;44154;45.506;-122.806;2023-03-31T13:52:10;1.10;;;0.30;;
50853;SDS011;44154;45.506;-122.806;2023-03-31T14:05:44;0.85;;;0.40;;
50853;SDS011;44154;45.506;-122.806;2023-03-31T14:11:16;1.20;;;0.30;;
50853;SDS011;44154;45.506;-122.806;2023-03-31T14:13:57;0.77;;;0.20;;
50853;SDS011;44154;45.506;-122.806;2023-03-31T14:16:32;0.93;;;0.30;;
50853;SDS011;44154;45.506;-122.806;2023-03-31T14:21:39;1.42;;;0.30;;
50853;SDS011;44154;45.506;-122.806;2023-03-31T14:37:18;0.90;;;0.40;;
50853;SDS011;44154;45.506;-122.806;2023-03-31T14:39:47;1.50;;;0.45;;
50853;SDS011;44154;45.506;-122.806;2023-03-31T14:42:36;1.20;;;0.47;;
50853;SDS011;44154;45.506;-122.806;2023-03-31T14:45:15;1.05;;;0.30;;
50853;SDS011;44154;45.506;-122.806;2023-03-31T14:47:52;0.85;;;0.35;;
50853;SDS011;44154;45.506;-122.806;2023-03-31T14:50:27;0.30;;;0.20;;
50853;SDS011;44154;45.506;-122.806;2023-03-31T14:55:22;1.13;;;0.50;;
50853;SDS011;44154;45.506;-122.806;2023-03-31T14:57:52;1.00;;;0.40;;
50853;SDS011;44154;45.506;-122.806;2023-03-31T15:00:25;1.63;;;0.43;;
50853;SDS011;44154;45.506;-122.806;2023-03-31T15:03:01;1.50;;;0.45;;
50853;SDS011;44154;45.506;-122.806;2023-03-31T15:05:36;9.63;;;0.88;;
50853;SDS011;44154;45.506;-122.806;2023-03-31T15:08:03;1.73;;;0.40;;
50853;SDS011;44154;45.506;-122.806;2023-03-31T15:10:34;2.33;;;0.30;;
50853;SDS011;44154;45.506;-122.806;2023-03-31T15:13:49;7.47;;;0.80;;
50853;SDS011;44154;45.506;-122.806;2023-03-31T15:15:52;2.33;;;0.47;;
50853;SDS011;44154;45.506;-122.806;2023-03-31T15:18:18;5.18;;;0.73;;
50853;SDS011;44154;45.506;-122.806;2023-03-31T15:20:45;3.55;;;0.60;;
50853;SDS011;44154;45.506;-122.806;2023-03-31T15:23:21;4.63;;;0.60;;
50853;SDS011;44154;45.506;-122.806;2023-03-31T15:28:22;4.38;;;0.85;;
50853;SDS011;44154;45.506;-122.806;2023-03-31T15:30:52;2.10;;;0.40;;
50853;SDS011;44154;45.506;-122.806;2023-03-31T15:33:20;3.85;;;0.63;;
50853;SDS011;44154;45.506;-122.806;2023-03-31T15:35:50;4.95;;;0.40;;
50853;SDS011;44154;45.506;-122.806;2023-03-31T15:38:16;2.28;;;0.50;;
50853;SDS011;44154;45.506;-122.806;2023-03-31T15:40:43;1.73;;;0.35;;
50853;SDS011;44154;45.506;-122.806;2023-03-31T15:45:58;3.45;;;0.65;;
50853;SDS011;44154;45.506;-122.806;2023-03-31T15:56:33;7.07;;;0.55;;
50853;SDS011;44154;45.506;-122.806;2023-03-31T15:59:05;3.53;;;0.60;;
50853;SDS011;44154;45.506;-122.806;2023-03-31T16:01:52;5.18;;;0.60;;
50853;SDS011;44154;45.506;-122.806;2023-03-31T16:04:20;3.65;;;0.77;;
50853;SDS011;44154;45.506;-122.806;2023-03-31T16:06:50;3.80;;;0.75;;
50853;SDS011;44154;45.506;-122.806;2023-03-31T16:09:22;1.95;;;0.50;;
50853;SDS011;44154;45.506;-122.806;2023-03-31T16:11:55;2.05;;;0.40;;
50853;SDS011;44154;45.506;-122.806;2023-03-31T16:14:28;1.45;;;0.35;;
50853;SDS011;44154;45.506;-122.806;2023-03-31T16:17:03;1.33;;;0.40;;
50853;SDS011;44154;45.506;-122.806;2023-03-31T16:19:43;1.00;;;0.30;;
50853;SDS011;44154;45.506;-122.806;2023-03-31T16:22:16;1.58;;;0.30;;
50853;SDS011;44154;45.506;-122.806;2023-03-31T16:24:45;1.52;;;0.47;;
50853;SDS011;44154;45.506;-122.806;2023-03-31T16:27:12;0.73;;;0.30;;
50853;SDS011;44154;45.506;-122.806;2023-03-31T16:29:39;3.47;;;0.60;;
50853;SDS011;44154;45.506;-122.806;2023-03-31T16:32:06;2.03;;;0.70;;
50853;SDS011;44154;45.506;-122.806;2023-03-31T16:37:23;1.88;;;0.50;;
50853;SDS011;44154;45.506;-122.806;2023-03-31T16:39:50;1.52;;;0.30;;
50853;SDS011;44154;45.506;-122.806;2023-03-31T16:42:17;1.17;;;0.40;;
50853;SDS011;44154;45.506;-122.806;2023-03-31T16:44:44;2.45;;;0.50;;
50853;SDS011;44154;45.506;-122.806;2023-03-31T16:47:11;1.67;;;0.50;;
50853;SDS011;44154;45.506;-122.806;2023-03-31T16:49:38;1.85;;;0.50;;
50853;SDS011;44154;45.506;-122.806;2023-03-31T16:52:04;1.77;;;0.40;;
50853;SDS011;44154;45.506;-122.806;2023-03-31T16:54:31;1.60;;;0.50;;
50853;SDS011;44154;45.506;-122.806;2023-03-31T16:56:57;1.13;;;0.45;;
50853;SDS011;44154;45.506;-122.806;2023-03-31T16:59:23;1.67;;;0.50;;
50853;SDS011;44154;45.506;-122.806;2023-03-31T17:01:49;1.02;;;0.40;;
50853;SDS011;44154;45.506;-122.806;2023-03-31T17:04:16;0.88;;;0.40;;
50853;SDS011;44154;45.506;-122.806;2023-03-31T17:06:44;0.85;;;0.30;;
50853;SDS011;44154;45.506;-122.806;2023-03-31T17:09:10;0.85;;;0.30;;
50853;SDS011;44154;45.506;-122.806;2023-03-31T17:11:36;1.08;;;0.38;;
50853;SDS011;44154;45.506;-122.806;2023-03-31T17:14:02;2.13;;;0.32;;
50853;SDS011;44154;45.506;-122.806;2023-03-31T17:16:29;1.42;;;0.30;;
50853;SDS011;44154;45.506;-122.806;2023-03-31T17:18:56;2.35;;;0.50;;
50853;SDS011;44154;45.506;-122.806;2023-03-31T17:21:22;1.73;;;0.47;;
50853;SDS011;44154;45.506;-122.806;2023-03-31T17:23:48;2.20;;;0.52;;
50853;SDS011;44154;45.506;-122.806;2023-03-31T17:26:15;1.08;;;0.32;;
50853;SDS011;44154;45.506;-122.806;2023-03-31T17:28:42;1.02;;;0.38;;
50853;SDS011;44154;45.506;-122.806;2023-03-31T17:31:16;0.85;;;0.35;;
50853;SDS011;44154;45.506;-122.806;2023-03-31T17:33:43;1.35;;;0.43;;
50853;SDS011;44154;45.506;-122.806;2023-03-31T17:36:10;1.60;;;0.40;;
50853;SDS011;44154;45.506;-122.806;2023-03-31T17:38:37;1.80;;;0.60;;
50853;SDS011;44154;45.506;-122.806;2023-03-31T17:41:04;1.17;;;0.50;;
50853;SDS011;44154;45.506;-122.806;2023-03-31T17:43:32;2.55;;;0.77;;
50853;SDS011;44154;45.506;-122.806;2023-03-31T17:46:06;3.30;;;0.57;;
50853;SDS011;44154;45.506;-122.806;2023-03-31T17:48:36;1.23;;;0.30;;
50853;SDS011;44154;45.506;-122.806;2023-03-31T17:51:06;1.40;;;0.50;;
50853;SDS011;44154;45.506;-122.806;2023-03-31T17:53:37;0.38;;;0.20;;
50853;SDS011;44154;45.506;-122.806;2023-03-31T17:56:04;3.60;;;0.60;;
50853;SDS011;44154;45.506;-122.806;2023-03-31T17:58:30;1.15;;;0.47;;
50853;SDS011;44154;45.506;-122.806;2023-03-31T18:00:58;1.65;;;0.50;;
50853;SDS011;44154;45.506;-122.806;2023-03-31T18:03:26;1.25;;;0.60;;